Terminal Aerodrome Forecast
Issued by NWS Cleveland, OH

Home | Current Version | Previous Version | Text Only | Print | Product List | Glossary On
Versions: 1 2 3 4 5 6 7 8 9 10 11 12 13 14 15 16 17 18 19 20 21 22 23 24 25 26 27
000
FTUS41 KCLE 241228 AAB
TAFCLE
TAF AMD
KCLE 241228Z 2412/2518 34008KT P6SM -RA OVC006
      TEMPO 2412/2416 5SM -RA BR OVC003
     FM241800 30008KT 4SM -DZ BR OVC006
     FM242200 27008KT 6SM BR OVC009
     FM250300 22005KT P6SM OVC015
     FM251500 18010KT P6SM OVC015=

USA.gov is the U.S. government's official web portal to all federal, state and local government web resources and services.